sensor_id;sensor_type;location;lat;lon;timestamp;P1;durP1;ratioP1;P2;durP2;ratioP2
68250;SDS011;55066;51.560;4.642;2022-11-15T00:01:48;79.03;;;21.85;;
68250;SDS011;55066;51.560;4.642;2022-11-15T00:04:32;75.80;;;20.80;;
68250;SDS011;55066;51.560;4.642;2022-11-15T00:07:16;80.05;;;22.38;;
68250;SDS011;55066;51.560;4.642;2022-11-15T00:10:00;78.30;;;19.70;;
68250;SDS011;55066;51.560;4.642;2022-11-15T00:12:44;69.13;;;19.05;;
68250;SDS011;55066;51.560;4.642;2022-11-15T00:15:28;78.05;;;21.30;;
68250;SDS011;55066;51.560;4.642;2022-11-15T00:18:12;70.85;;;21.08;;
68250;SDS011;55066;51.560;4.642;2022-11-15T00:21:02;59.05;;;18.58;;
68250;SDS011;55066;51.560;4.642;2022-11-15T00:23:48;66.72;;;18.75;;
68250;SDS011;55066;51.560;4.642;2022-11-15T00:26:32;68.43;;;20.60;;
68250;SDS011;55066;51.560;4.642;2022-11-15T00:29:16;70.40;;;20.50;;
68250;SDS011;55066;51.560;4.642;2022-11-15T00:32:00;79.72;;;22.58;;
68250;SDS011;55066;51.560;4.642;2022-11-15T00:34:44;69.65;;;21.52;;
68250;SDS011;55066;51.560;4.642;2022-11-15T00:37:28;58.70;;;19.58;;
68250;SDS011;55066;51.560;4.642;2022-11-15T00:40:12;59.55;;;19.92;;
68250;SDS011;55066;51.560;4.642;2022-11-15T00:42:59;63.45;;;21.42;;
68250;SDS011;55066;51.560;4.642;2022-11-15T00:45:43;68.68;;;21.40;;
68250;SDS011;55066;51.560;4.642;2022-11-15T00:48:27;71.32;;;21.92;;
68250;SDS011;55066;51.560;4.642;2022-11-15T00:51:11;61.58;;;21.15;;
68250;SDS011;55066;51.560;4.642;2022-11-15T00:53:55;65.50;;;21.25;;
68250;SDS011;55066;51.560;4.642;2022-11-15T00:56:39;69.50;;;22.33;;
68250;SDS011;55066;51.560;4.642;2022-11-15T00:59:23;67.57;;;22.75;;
68250;SDS011;55066;51.560;4.642;2022-11-15T01:02:07;63.88;;;21.80;;
68250;SDS011;55066;51.560;4.642;2022-11-15T01:04:51;68.45;;;21.77;;
68250;SDS011;55066;51.560;4.642;2022-11-15T01:07:35;68.28;;;22.60;;
68250;SDS011;55066;51.560;4.642;2022-11-15T01:10:20;64.28;;;21.17;;
68250;SDS011;55066;51.560;4.642;2022-11-15T01:13:04;61.33;;;20.48;;
68250;SDS011;55066;51.560;4.642;2022-11-15T01:15:48;68.00;;;20.67;;
68250;SDS011;55066;51.560;4.642;2022-11-15T01:18:32;71.93;;;23.13;;
68250;SDS011;55066;51.560;4.642;2022-11-15T01:21:16;69.80;;;23.20;;
68250;SDS011;55066;51.560;4.642;2022-11-15T01:24:02;71.45;;;23.35;;
68250;SDS011;55066;51.560;4.642;2022-11-15T01:26:46;61.38;;;21.35;;
68250;SDS011;55066;51.560;4.642;2022-11-15T01:29:30;59.35;;;21.38;;
68250;SDS011;55066;51.560;4.642;2022-11-15T01:32:14;58.13;;;21.48;;
68250;SDS011;55066;51.560;4.642;2022-11-15T01:34:58;64.78;;;21.48;;
68250;SDS011;55066;51.560;4.642;2022-11-15T01:37:42;61.35;;;22.65;;
68250;SDS011;55066;51.560;4.642;2022-11-15T01:40:26;69.20;;;23.60;;
68250;SDS011;55066;51.560;4.642;2022-11-15T01:43:24;70.15;;;23.38;;
68250;SDS011;55066;51.560;4.642;2022-11-15T01:46:29;67.57;;;22.67;;
68250;SDS011;55066;51.560;4.642;2022-11-15T01:49:18;66.88;;;22.85;;
68250;SDS011;55066;51.560;4.642;2022-11-15T01:52:10;65.45;;;22.45;;
68250;SDS011;55066;51.560;4.642;2022-11-15T01:57:56;61.78;;;22.73;;
68250;SDS011;55066;51.560;4.642;2022-11-15T02:00:43;53.22;;;18.65;;
68250;SDS011;55066;51.560;4.642;2022-11-15T02:03:31;65.28;;;21.45;;
68250;SDS011;55066;51.560;4.642;2022-11-15T02:06:23;67.18;;;22.17;;
68250;SDS011;55066;51.560;4.642;2022-11-15T02:09:07;60.13;;;22.10;;
68250;SDS011;55066;51.560;4.642;2022-11-15T02:11:51;63.45;;;21.05;;
68250;SDS011;55066;51.560;4.642;2022-11-15T02:14:38;62.17;;;22.13;;
68250;SDS011;55066;51.560;4.642;2022-11-15T02:17:31;66.95;;;22.38;;
68250;SDS011;55066;51.560;4.642;2022-11-15T02:26:36;63.25;;;21.15;;
68250;SDS011;55066;51.560;4.642;2022-11-15T02:33:03;61.65;;;20.98;;
68250;SDS011;55066;51.560;4.642;2022-11-15T02:35:59;62.15;;;20.40;;
68250;SDS011;55066;51.560;4.642;2022-11-15T02:41:58;65.43;;;21.55;;
68250;SDS011;55066;51.560;4.642;2022-11-15T02:44:46;56.45;;;20.38;;
68250;SDS011;55066;51.560;4.642;2022-11-15T02:47:33;57.85;;;20.42;;
68250;SDS011;55066;51.560;4.642;2022-11-15T02:50:28;59.40;;;21.45;;
68250;SDS011;55066;51.560;4.642;2022-11-15T02:53:15;57.95;;;21.05;;
68250;SDS011;55066;51.560;4.642;2022-11-15T02:55:59;55.28;;;19.80;;
68250;SDS011;55066;51.560;4.642;2022-11-15T03:02:12;60.72;;;19.58;;
68250;SDS011;55066;51.560;4.642;2022-11-15T03:11:26;54.65;;;20.40;;
68250;SDS011;55066;51.560;4.642;2022-11-15T03:17:16;57.45;;;20.00;;
68250;SDS011;55066;51.560;4.642;2022-11-15T03:20:12;56.25;;;20.33;;
68250;SDS011;55066;51.560;4.642;2022-11-15T03:23:00;61.17;;;18.98;;
68250;SDS011;55066;51.560;4.642;2022-11-15T03:25:48;49.10;;;18.40;;
68250;SDS011;55066;51.560;4.642;2022-11-15T03:28:39;48.78;;;18.02;;
68250;SDS011;55066;51.560;4.642;2022-11-15T03:31:28;50.33;;;17.83;;
68250;SDS011;55066;51.560;4.642;2022-11-15T03:34:32;56.20;;;17.30;;
68250;SDS011;55066;51.560;4.642;2022-11-15T03:37:24;48.33;;;18.08;;
68250;SDS011;55066;51.560;4.642;2022-11-15T03:40:42;51.20;;;18.10;;
68250;SDS011;55066;51.560;4.642;2022-11-15T03:43:43;55.22;;;18.10;;
68250;SDS011;55066;51.560;4.642;2022-11-15T03:46:39;52.53;;;17.83;;
68250;SDS011;55066;51.560;4.642;2022-11-15T03:49:35;52.00;;;18.33;;
68250;SDS011;55066;51.560;4.642;2022-11-15T03:52:21;51.28;;;18.10;;
68250;SDS011;55066;51.560;4.642;2022-11-15T03:55:07;47.13;;;18.00;;
68250;SDS011;55066;51.560;4.642;2022-11-15T03:57:53;51.47;;;18.10;;
68250;SDS011;55066;51.560;4.642;2022-11-15T04:00:39;51.70;;;18.27;;
68250;SDS011;55066;51.560;4.642;2022-11-15T04:03:23;56.53;;;18.33;;
68250;SDS011;55066;51.560;4.642;2022-11-15T04:06:07;51.35;;;16.77;;
68250;SDS011;55066;51.560;4.642;2022-11-15T04:08:51;57.10;;;17.98;;
68250;SDS011;55066;51.560;4.642;2022-11-15T04:11:35;49.13;;;17.10;;
68250;SDS011;55066;51.560;4.642;2022-11-15T04:14:19;46.95;;;16.90;;
68250;SDS011;55066;51.560;4.642;2022-11-15T04:17:03;48.08;;;16.40;;
68250;SDS011;55066;51.560;4.642;2022-11-15T04:19:47;51.25;;;17.17;;
68250;SDS011;55066;51.560;4.642;2022-11-15T04:22:52;45.10;;;15.45;;
68250;SDS011;55066;51.560;4.642;2022-11-15T04:25:56;39.88;;;14.55;;
68250;SDS011;55066;51.560;4.642;2022-11-15T04:28:42;43.08;;;16.15;;
68250;SDS011;55066;51.560;4.642;2022-11-15T04:31:45;38.50;;;15.25;;
68250;SDS011;55066;51.560;4.642;2022-11-15T04:34:30;41.50;;;14.70;;
68250;SDS011;55066;51.560;4.642;2022-11-15T04:37:14;42.75;;;15.45;;
68250;SDS011;55066;51.560;4.642;2022-11-15T04:39:59;46.00;;;15.32;;
68250;SDS011;55066;51.560;4.642;2022-11-15T04:42:44;40.03;;;15.45;;
68250;SDS011;55066;51.560;4.642;2022-11-15T04:45:28;37.00;;;14.25;;
68250;SDS011;55066;51.560;4.642;2022-11-15T04:48:12;46.17;;;15.18;;
68250;SDS011;55066;51.560;4.642;2022-11-15T04:50:56;41.85;;;14.45;;
68250;SDS011;55066;51.560;4.642;2022-11-15T04:53:40;42.50;;;14.45;;
68250;SDS011;55066;51.560;4.642;2022-11-15T04:56:24;46.28;;;14.52;;
68250;SDS011;55066;51.560;4.642;2022-11-15T04:59:07;31.83;;;12.70;;
68250;SDS011;55066;51.560;4.642;2022-11-15T05:01:52;41.88;;;14.20;;
68250;SDS011;55066;51.560;4.642;2022-11-15T05:04:35;37.22;;;12.93;;
68250;SDS011;55066;51.560;4.642;2022-11-15T05:07:19;41.83;;;13.80;;
68250;SDS011;55066;51.560;4.642;2022-11-15T05:10:03;36.20;;;12.65;;
68250;SDS011;55066;51.560;4.642;2022-11-15T05:12:48;37.88;;;12.50;;
68250;SDS011;55066;51.560;4.642;2022-11-15T05:15:32;37.33;;;12.65;;
68250;SDS011;55066;51.560;4.642;2022-11-15T05:18:16;32.97;;;11.88;;
68250;SDS011;55066;51.560;4.642;2022-11-15T05:21:03;37.28;;;12.40;;
68250;SDS011;55066;51.560;4.642;2022-11-15T05:23:48;35.45;;;11.88;;
68250;SDS011;55066;51.560;4.642;2022-11-15T05:26:32;31.85;;;12.07;;
68250;SDS011;55066;51.560;4.642;2022-11-15T05:29:16;32.78;;;11.82;;
68250;SDS011;55066;51.560;4.642;2022-11-15T05:32:00;31.73;;;11.05;;
68250;SDS011;55066;51.560;4.642;2022-11-15T05:34:44;33.58;;;11.52;;
68250;SDS011;55066;51.560;4.642;2022-11-15T05:37:29;27.70;;;10.80;;
68250;SDS011;55066;51.560;4.642;2022-11-15T05:40:13;29.60;;;11.20;;
68250;SDS011;55066;51.560;4.642;2022-11-15T05:42:57;31.98;;;10.60;;
68250;SDS011;55066;51.560;4.642;2022-11-15T05:45:43;34.65;;;10.55;;
68250;SDS011;55066;51.560;4.642;2022-11-15T05:48:27;27.15;;;10.07;;
68250;SDS011;55066;51.560;4.642;2022-11-15T05:51:11;27.35;;;9.88;;
68250;SDS011;55066;51.560;4.642;2022-11-15T05:53:57;30.05;;;8.63;;
68250;SDS011;55066;51.560;4.642;2022-11-15T05:56:42;25.52;;;8.80;;
68250;SDS011;55066;51.560;4.642;2022-11-15T05:59:28;22.08;;;8.13;;
68250;SDS011;55066;51.560;4.642;2022-11-15T06:02:14;25.45;;;8.07;;
68250;SDS011;55066;51.560;4.642;2022-11-15T06:04:58;25.90;;;7.93;;
68250;SDS011;55066;51.560;4.642;2022-11-15T06:07:42;18.17;;;7.32;;
68250;SDS011;55066;51.560;4.642;2022-11-15T06:10:27;24.30;;;8.40;;
68250;SDS011;55066;51.560;4.642;2022-11-15T06:13:11;20.83;;;7.80;;
68250;SDS011;55066;51.560;4.642;2022-11-15T06:15:55;23.13;;;7.80;;
68250;SDS011;55066;51.560;4.642;2022-11-15T06:18:40;26.58;;;8.80;;
68250;SDS011;55066;51.560;4.642;2022-11-15T06:21:24;20.92;;;8.43;;
68250;SDS011;55066;51.560;4.642;2022-11-15T06:24:08;24.67;;;9.07;;
68250;SDS011;55066;51.560;4.642;2022-11-15T06:26:52;23.20;;;8.43;;
68250;SDS011;55066;51.560;4.642;2022-11-15T06:29:36;26.00;;;8.70;;
68250;SDS011;55066;51.560;4.642;2022-11-15T06:32:20;21.38;;;8.13;;
68250;SDS011;55066;51.560;4.642;2022-11-15T06:35:04;20.02;;;8.15;;
68250;SDS011;55066;51.560;4.642;2022-11-15T06:37:48;26.45;;;8.82;;
68250;SDS011;55066;51.560;4.642;2022-11-15T06:40:34;23.17;;;8.60;;
68250;SDS011;55066;51.560;4.642;2022-11-15T06:43:18;26.98;;;8.48;;
68250;SDS011;55066;51.560;4.642;2022-11-15T06:46:03;20.88;;;8.20;;
68250;SDS011;55066;51.560;4.642;2022-11-15T06:48:50;24.52;;;8.18;;
68250;SDS011;55066;51.560;4.642;2022-11-15T06:51:34;24.50;;;7.68;;
68250;SDS011;55066;51.560;4.642;2022-11-15T06:54:19;24.42;;;7.72;;
68250;SDS011;55066;51.560;4.642;2022-11-15T06:57:04;21.02;;;7.35;;
68250;SDS011;55066;51.560;4.642;2022-11-15T06:59:48;20.33;;;7.43;;
68250;SDS011;55066;51.560;4.642;2022-11-15T07:02:32;20.08;;;8.32;;
68250;SDS011;55066;51.560;4.642;2022-11-15T07:05:16;20.20;;;7.68;;
68250;SDS011;55066;51.560;4.642;2022-11-15T07:08:00;20.90;;;7.65;;
68250;SDS011;55066;51.560;4.642;2022-11-15T07:10:44;21.23;;;7.22;;
68250;SDS011;55066;51.560;4.642;2022-11-15T07:13:29;21.25;;;6.88;;
68250;SDS011;55066;51.560;4.642;2022-11-15T07:16:18;22.13;;;6.57;;
68250;SDS011;55066;51.560;4.642;2022-11-15T07:19:01;20.67;;;6.75;;
68250;SDS011;55066;51.560;4.642;2022-11-15T07:21:46;16.13;;;6.45;;
68250;SDS011;55066;51.560;4.642;2022-11-15T07:24:30;16.00;;;6.10;;
68250;SDS011;55066;51.560;4.642;2022-11-15T07:27:14;20.05;;;6.45;;
68250;SDS011;55066;51.560;4.642;2022-11-15T07:29:58;16.88;;;5.93;;
68250;SDS011;55066;51.560;4.642;2022-11-15T07:32:42;17.23;;;5.82;;
68250;SDS011;55066;51.560;4.642;2022-11-15T07:35:26;20.63;;;5.55;;
68250;SDS011;55066;51.560;4.642;2022-11-15T07:38:12;13.90;;;5.28;;
68250;SDS011;55066;51.560;4.642;2022-11-15T07:41:00;15.05;;;5.30;;
68250;SDS011;55066;51.560;4.642;2022-11-15T07:43:46;14.60;;;5.70;;
68250;SDS011;55066;51.560;4.642;2022-11-15T07:46:30;18.38;;;5.68;;
68250;SDS011;55066;51.560;4.642;2022-11-15T07:49:15;15.68;;;5.78;;
68250;SDS011;55066;51.560;4.642;2022-11-15T07:51:59;19.00;;;6.18;;
68250;SDS011;55066;51.560;4.642;2022-11-15T07:54:42;22.85;;;6.22;;
68250;SDS011;55066;51.560;4.642;2022-11-15T07:57:26;15.60;;;6.38;;
68250;SDS011;55066;51.560;4.642;2022-11-15T08:00:10;19.73;;;6.70;;
68250;SDS011;55066;51.560;4.642;2022-11-15T08:03:08;19.33;;;6.97;;
68250;SDS011;55066;51.560;4.642;2022-11-15T08:05:54;18.90;;;6.85;;
68250;SDS011;55066;51.560;4.642;2022-11-15T08:08:38;16.95;;;7.05;;
68250;SDS011;55066;51.560;4.642;2022-11-15T08:11:21;14.65;;;5.95;;
68250;SDS011;55066;51.560;4.642;2022-11-15T08:14:05;16.90;;;6.18;;
68250;SDS011;55066;51.560;4.642;2022-11-15T08:16:49;14.75;;;6.07;;
68250;SDS011;55066;51.560;4.642;2022-11-15T08:19:33;18.88;;;6.47;;
68250;SDS011;55066;51.560;4.642;2022-11-15T08:22:17;15.77;;;6.22;;
68250;SDS011;55066;51.560;4.642;2022-11-15T08:25:02;15.75;;;6.28;;
68250;SDS011;55066;51.560;4.642;2022-11-15T08:27:46;15.55;;;5.15;;
68250;SDS011;55066;51.560;4.642;2022-11-15T08:30:30;15.85;;;5.90;;
68250;SDS011;55066;51.560;4.642;2022-11-15T08:33:14;14.65;;;5.72;;
68250;SDS011;55066;51.560;4.642;2022-11-15T08:35:58;14.65;;;6.00;;
68250;SDS011;55066;51.560;4.642;2022-11-15T08:38:43;16.67;;;6.10;;
68250;SDS011;55066;51.560;4.642;2022-11-15T08:41:31;14.45;;;5.10;;
68250;SDS011;55066;51.560;4.642;2022-11-15T08:44:18;11.52;;;4.43;;
68250;SDS011;55066;51.560;4.642;2022-11-15T08:47:02;13.40;;;3.88;;
68250;SDS011;55066;51.560;4.642;2022-11-15T08:49:46;16.83;;;4.93;;
68250;SDS011;55066;51.560;4.642;2022-11-15T08:52:30;14.32;;;4.80;;
68250;SDS011;55066;51.560;4.642;2022-11-15T08:55:15;11.13;;;5.10;;
68250;SDS011;55066;51.560;4.642;2022-11-15T08:57:58;12.88;;;4.53;;
68250;SDS011;55066;51.560;4.642;2022-11-15T09:00:42;15.10;;;5.40;;
68250;SDS011;55066;51.560;4.642;2022-11-15T09:03:26;11.27;;;4.40;;
68250;SDS011;55066;51.560;4.642;2022-11-15T09:06:10;11.57;;;4.75;;
68250;SDS011;55066;51.560;4.642;2022-11-15T09:08:55;12.48;;;4.47;;
68250;SDS011;55066;51.560;4.642;2022-11-15T09:11:40;12.23;;;4.93;;
68250;SDS011;55066;51.560;4.642;2022-11-15T09:14:24;11.38;;;4.53;;
68250;SDS011;55066;51.560;4.642;2022-11-15T09:17:08;10.85;;;4.18;;
68250;SDS011;55066;51.560;4.642;2022-11-15T09:19:52;15.27;;;4.68;;
68250;SDS011;55066;51.560;4.642;2022-11-15T09:22:36;12.05;;;4.53;;
68250;SDS011;55066;51.560;4.642;2022-11-15T09:25:22;10.48;;;4.10;;
68250;SDS011;55066;51.560;4.642;2022-11-15T09:28:06;10.00;;;4.25;;
68250;SDS011;55066;51.560;4.642;2022-11-15T09:30:50;9.48;;;3.92;;
68250;SDS011;55066;51.560;4.642;2022-11-15T09:33:35;12.07;;;3.35;;
68250;SDS011;55066;51.560;4.642;2022-11-15T09:36:19;12.60;;;4.22;;
68250;SDS011;55066;51.560;4.642;2022-11-15T09:39:03;9.38;;;3.20;;
68250;SDS011;55066;51.560;4.642;2022-11-15T09:41:51;8.18;;;3.90;;
68250;SDS011;55066;51.560;4.642;2022-11-15T09:45:09;11.77;;;3.60;;
68250;SDS011;55066;51.560;4.642;2022-11-15T09:51:08;9.27;;;3.40;;
68250;SDS011;55066;51.560;4.642;2022-11-15T09:53:41;9.88;;;3.38;;
68250;SDS011;55066;51.560;4.642;2022-11-15T09:56:15;9.57;;;3.28;;
68250;SDS011;55066;51.560;4.642;2022-11-15T10:04:26;6.15;;;2.55;;
68250;SDS011;55066;51.560;4.642;2022-11-15T10:06:54;7.57;;;3.20;;
68250;SDS011;55066;51.560;4.642;2022-11-15T10:09:39;11.02;;;3.17;;
68250;SDS011;55066;51.560;4.642;2022-11-15T10:12:18;11.60;;;2.80;;
68250;SDS011;55066;51.560;4.642;2022-11-15T10:14:45;9.23;;;3.13;;
68250;SDS011;55066;51.560;4.642;2022-11-15T10:20:23;6.47;;;2.90;;
68250;SDS011;55066;51.560;4.642;2022-11-15T10:22:52;6.68;;;2.35;;
68250;SDS011;55066;51.560;4.642;2022-11-15T10:28:00;6.93;;;2.47;;
68250;SDS011;55066;51.560;4.642;2022-11-15T10:30:33;6.10;;;2.30;;
68250;SDS011;55066;51.560;4.642;2022-11-15T10:33:08;9.45;;;3.15;;
68250;SDS011;55066;51.560;4.642;2022-11-15T10:35:36;6.00;;;1.50;;
68250;SDS011;55066;51.560;4.642;2022-11-15T10:38:08;4.33;;;2.13;;
68250;SDS011;55066;51.560;4.642;2022-11-15T10:40:36;8.38;;;2.17;;
68250;SDS011;55066;51.560;4.642;2022-11-15T10:45:34;7.57;;;2.00;;
68250;SDS011;55066;51.560;4.642;2022-11-15T10:50:37;9.07;;;2.30;;
68250;SDS011;55066;51.560;4.642;2022-11-15T10:53:21;4.93;;;1.75;;
68250;SDS011;55066;51.560;4.642;2022-11-15T10:56:04;7.40;;;2.08;;
68250;SDS011;55066;51.560;4.642;2022-11-15T10:58:34;4.47;;;1.52;;
68250;SDS011;55066;51.560;4.642;2022-11-15T11:01:13;7.47;;;2.10;;
68250;SDS011;55066;51.560;4.642;2022-11-15T11:03:41;7.15;;;1.67;;
68250;SDS011;55066;51.560;4.642;2022-11-15T11:06:12;5.78;;;1.50;;
68250;SDS011;55066;51.560;4.642;2022-11-15T11:08:38;4.75;;;1.58;;
68250;SDS011;55066;51.560;4.642;2022-11-15T11:11:04;6.82;;;1.40;;
68250;SDS011;55066;51.560;4.642;2022-11-15T11:13:35;10.00;;;2.00;;
68250;SDS011;55066;51.560;4.642;2022-11-15T11:24:14;9.15;;;1.60;;
68250;SDS011;55066;51.560;4.642;2022-11-15T11:27:05;5.80;;;1.63;;
68250;SDS011;55066;51.560;4.642;2022-11-15T11:32:22;5.00;;;1.40;;
68250;SDS011;55066;51.560;4.642;2022-11-15T11:37:39;5.35;;;1.45;;
68250;SDS011;55066;51.560;4.642;2022-11-15T11:40:20;4.00;;;1.10;;
68250;SDS011;55066;51.560;4.642;2022-11-15T11:42:58;5.50;;;1.50;;
68250;SDS011;55066;51.560;4.642;2022-11-15T11:48:12;11.82;;;1.33;;
68250;SDS011;55066;51.560;4.642;2022-11-15T11:50:39;4.85;;;0.93;;
68250;SDS011;55066;51.560;4.642;2022-11-15T11:53:25;6.57;;;1.30;;
68250;SDS011;55066;51.560;4.642;2022-11-15T11:55:57;4.85;;;1.08;;
68250;SDS011;55066;51.560;4.642;2022-11-15T12:01:25;6.90;;;0.95;;
68250;SDS011;55066;51.560;4.642;2022-11-15T12:04:01;6.18;;;1.15;;
68250;SDS011;55066;51.560;4.642;2022-11-15T12:06:49;3.27;;;1.10;;
68250;SDS011;55066;51.560;4.642;2022-11-15T12:09:32;5.25;;;1.08;;
68250;SDS011;55066;51.560;4.642;2022-11-15T12:14:45;5.43;;;1.00;;
68250;SDS011;55066;51.560;4.642;2022-11-15T12:17:12;7.30;;;1.88;;
68250;SDS011;55066;51.560;4.642;2022-11-15T12:19:39;3.97;;;1.10;;
68250;SDS011;55066;51.560;4.642;2022-11-15T12:24:57;4.88;;;1.10;;
68250;SDS011;55066;51.560;4.642;2022-11-15T12:27:33;4.13;;;1.00;;
68250;SDS011;55066;51.560;4.642;2022-11-15T12:30:18;4.22;;;0.90;;
68250;SDS011;55066;51.560;4.642;2022-11-15T12:32:50;11.13;;;1.87;;
68250;SDS011;55066;51.560;4.642;2022-11-15T12:35:27;7.07;;;1.02;;
68250;SDS011;55066;51.560;4.642;2022-11-15T12:37:56;5.05;;;1.10;;
68250;SDS011;55066;51.560;4.642;2022-11-15T12:40:23;9.70;;;1.13;;
68250;SDS011;55066;51.560;4.642;2022-11-15T12:45:29;17.60;;;1.20;;
68250;SDS011;55066;51.560;4.642;2022-11-15T12:58:27;6.90;;;1.52;;
68250;SDS011;55066;51.560;4.642;2022-11-15T13:01:06;6.10;;;1.33;;
68250;SDS011;55066;51.560;4.642;2022-11-15T13:03:32;9.13;;;1.08;;
68250;SDS011;55066;51.560;4.642;2022-11-15T13:05:59;3.97;;;1.13;;
68250;SDS011;55066;51.560;4.642;2022-11-15T13:08:42;5.82;;;1.27;;
68250;SDS011;55066;51.560;4.642;2022-11-15T13:17:17;5.53;;;1.10;;
68250;SDS011;55066;51.560;4.642;2022-11-15T13:20:28;4.07;;;1.13;;
68250;SDS011;55066;51.560;4.642;2022-11-15T13:33:21;6.63;;;1.20;;
68250;SDS011;55066;51.560;4.642;2022-11-15T13:35:50;3.75;;;1.10;;
68250;SDS011;55066;51.560;4.642;2022-11-15T13:38:39;3.00;;;1.17;;
68250;SDS011;55066;51.560;4.642;2022-11-15T13:43:41;3.53;;;1.27;;
68250;SDS011;55066;51.560;4.642;2022-11-15T13:46:10;2.90;;;1.03;;
68250;SDS011;55066;51.560;4.642;2022-11-15T13:48:41;7.53;;;2.05;;
68250;SDS011;55066;51.560;4.642;2022-11-15T13:53:46;9.63;;;1.10;;
68250;SDS011;55066;51.560;4.642;2022-11-15T13:56:25;6.20;;;1.05;;
68250;SDS011;55066;51.560;4.642;2022-11-15T13:58:52;3.90;;;1.05;;
68250;SDS011;55066;51.560;4.642;2022-11-15T14:01:20;5.20;;;1.15;;
68250;SDS011;55066;51.560;4.642;2022-11-15T14:03:51;5.60;;;1.48;;
68250;SDS011;55066;51.560;4.642;2022-11-15T14:06:23;2.08;;;0.80;;
68250;SDS011;55066;51.560;4.642;2022-11-15T14:09:01;4.40;;;0.95;;
68250;SDS011;55066;51.560;4.642;2022-11-15T14:11:27;4.65;;;1.27;;
68250;SDS011;55066;51.560;4.642;2022-11-15T14:14:08;7.00;;;1.20;;
68250;SDS011;55066;51.560;4.642;2022-11-15T14:16:48;3.70;;;1.20;;
68250;SDS011;55066;51.560;4.642;2022-11-15T14:24:41;4.97;;;0.90;;
68250;SDS011;55066;51.560;4.642;2022-11-15T14:27:25;4.97;;;0.90;;
68250;SDS011;55066;51.560;4.642;2022-11-15T14:29:52;4.70;;;0.90;;
68250;SDS011;55066;51.560;4.642;2022-11-15T14:34:46;2.92;;;1.00;;
68250;SDS011;55066;51.560;4.642;2022-11-15T14:37:18;6.78;;;1.50;;
68250;SDS011;55066;51.560;4.642;2022-11-15T14:39:46;5.30;;;1.48;;
68250;SDS011;55066;51.560;4.642;2022-11-15T14:42:11;4.53;;;1.10;;
68250;SDS011;55066;51.560;4.642;2022-11-15T14:44:36;9.63;;;1.10;;
68250;SDS011;55066;51.560;4.642;2022-11-15T14:47:02;6.23;;;1.40;;
68250;SDS011;55066;51.560;4.642;2022-11-15T14:49:27;6.47;;;1.30;;
68250;SDS011;55066;51.560;4.642;2022-11-15T14:51:53;3.37;;;1.30;;
68250;SDS011;55066;51.560;4.642;2022-11-15T14:54:18;3.58;;;1.00;;
68250;SDS011;55066;51.560;4.642;2022-11-15T14:56:43;3.03;;;1.23;;
68250;SDS011;55066;51.560;4.642;2022-11-15T14:59:09;4.20;;;1.17;;
68250;SDS011;55066;51.560;4.642;2022-11-15T15:01:34;10.30;;;1.57;;
68250;SDS011;55066;51.560;4.642;2022-11-15T15:03:59;11.73;;;1.17;;
68250;SDS011;55066;51.560;4.642;2022-11-15T15:06:25;5.87;;;1.40;;
68250;SDS011;55066;51.560;4.642;2022-11-15T15:08:51;7.05;;;1.52;;
68250;SDS011;55066;51.560;4.642;2022-11-15T15:11:19;5.67;;;1.30;;
68250;SDS011;55066;51.560;4.642;2022-11-15T15:13:45;4.25;;;1.30;;
68250;SDS011;55066;51.560;4.642;2022-11-15T15:16:10;8.77;;;1.40;;
68250;SDS011;55066;51.560;4.642;2022-11-15T15:18:35;5.17;;;1.50;;
68250;SDS011;55066;51.560;4.642;2022-11-15T15:21:01;6.53;;;1.27;;
68250;SDS011;55066;51.560;4.642;2022-11-15T15:23:32;7.32;;;1.60;;
68250;SDS011;55066;51.560;4.642;2022-11-15T15:25:58;6.35;;;1.70;;
68250;SDS011;55066;51.560;4.642;2022-11-15T15:28:23;9.67;;;1.77;;
68250;SDS011;55066;51.560;4.642;2022-11-15T15:30:49;6.10;;;1.65;;
68250;SDS011;55066;51.560;4.642;2022-11-15T15:33:14;8.83;;;1.80;;
68250;SDS011;55066;51.560;4.642;2022-11-15T15:35:40;3.88;;;1.35;;
68250;SDS011;55066;51.560;4.642;2022-11-15T15:38:08;10.60;;;1.90;;
68250;SDS011;55066;51.560;4.642;2022-11-15T15:40:36;8.18;;;1.92;;
68250;SDS011;55066;51.560;4.642;2022-11-15T15:43:01;4.27;;;1.90;;
68250;SDS011;55066;51.560;4.642;2022-11-15T15:45:27;5.97;;;2.08;;
68250;SDS011;55066;51.560;4.642;2022-11-15T15:47:53;10.68;;;2.20;;
68250;SDS011;55066;51.560;4.642;2022-11-15T15:52:47;7.30;;;1.90;;
68250;SDS011;55066;51.560;4.642;2022-11-15T15:55:13;5.15;;;1.75;;
68250;SDS011;55066;51.560;4.642;2022-11-15T15:57:38;4.37;;;2.10;;
68250;SDS011;55066;51.560;4.642;2022-11-15T16:00:04;7.15;;;2.15;;
68250;SDS011;55066;51.560;4.642;2022-11-15T16:02:37;5.38;;;2.03;;
68250;SDS011;55066;51.560;4.642;2022-11-15T16:05:03;5.10;;;2.03;;
68250;SDS011;55066;51.560;4.642;2022-11-15T16:07:28;7.10;;;2.40;;
68250;SDS011;55066;51.560;4.642;2022-11-15T16:09:54;7.78;;;2.25;;
68250;SDS011;55066;51.560;4.642;2022-11-15T16:12:35;5.10;;;2.03;;
68250;SDS011;55066;51.560;4.642;2022-11-15T16:15:01;5.63;;;2.08;;
68250;SDS011;55066;51.560;4.642;2022-11-15T16:17:31;5.57;;;2.03;;
68250;SDS011;55066;51.560;4.642;2022-11-15T16:20:00;4.57;;;2.22;;
68250;SDS011;55066;51.560;4.642;2022-11-15T16:22:25;6.78;;;2.13;;
68250;SDS011;55066;51.560;4.642;2022-11-15T16:24:51;5.17;;;2.27;;
68250;SDS011;55066;51.560;4.642;2022-11-15T16:27:17;3.97;;;2.00;;
68250;SDS011;55066;51.560;4.642;2022-11-15T16:29:44;5.47;;;1.75;;
68250;SDS011;55066;51.560;4.642;2022-11-15T16:32:11;7.40;;;2.20;;
68250;SDS011;55066;51.560;4.642;2022-11-15T16:34:36;5.40;;;2.13;;
68250;SDS011;55066;51.560;4.642;2022-11-15T16:37:02;5.90;;;1.90;;
68250;SDS011;55066;51.560;4.642;2022-11-15T16:39:28;6.50;;;2.38;;
68250;SDS011;55066;51.560;4.642;2022-11-15T16:41:58;7.63;;;2.60;;
68250;SDS011;55066;51.560;4.642;2022-11-15T16:44:24;8.93;;;2.08;;
68250;SDS011;55066;51.560;4.642;2022-11-15T16:46:50;5.32;;;2.15;;
68250;SDS011;55066;51.560;4.642;2022-11-15T16:49:17;7.22;;;2.65;;
68250;SDS011;55066;51.560;4.642;2022-11-15T16:51:44;7.88;;;2.65;;
68250;SDS011;55066;51.560;4.642;2022-11-15T16:54:10;5.97;;;2.27;;
68250;SDS011;55066;51.560;4.642;2022-11-15T16:56:36;6.85;;;2.55;;
68250;SDS011;55066;51.560;4.642;2022-11-15T16:59:02;7.80;;;2.80;;
68250;SDS011;55066;51.560;4.642;2022-11-15T17:01:29;8.23;;;3.87;;
68250;SDS011;55066;51.560;4.642;2022-11-15T17:03:57;11.27;;;2.95;;
68250;SDS011;55066;51.560;4.642;2022-11-15T17:06:24;8.07;;;3.20;;
68250;SDS011;55066;51.560;4.642;2022-11-15T17:08:50;8.83;;;3.33;;
68250;SDS011;55066;51.560;4.642;2022-11-15T17:11:18;8.85;;;3.30;;
68250;SDS011;55066;51.560;4.642;2022-11-15T17:13:45;9.85;;;4.10;;
68250;SDS011;55066;51.560;4.642;2022-11-15T17:16:14;8.70;;;3.70;;
68250;SDS011;55066;51.560;4.642;2022-11-15T17:18:41;9.90;;;4.18;;
68250;SDS011;55066;51.560;4.642;2022-11-15T17:21:16;11.30;;;5.03;;
68250;SDS011;55066;51.560;4.642;2022-11-15T17:23:43;11.45;;;4.78;;
68250;SDS011;55066;51.560;4.642;2022-11-15T17:26:12;11.07;;;5.20;;
68250;SDS011;55066;51.560;4.642;2022-11-15T17:28:39;12.27;;;4.83;;
68250;SDS011;55066;51.560;4.642;2022-11-15T17:31:10;15.35;;;5.13;;
68250;SDS011;55066;51.560;4.642;2022-11-15T17:33:37;8.27;;;4.15;;
68250;SDS011;55066;51.560;4.642;2022-11-15T17:36:04;7.93;;;4.13;;
68250;SDS011;55066;51.560;4.642;2022-11-15T17:38:31;9.25;;;4.45;;
68250;SDS011;55066;51.560;4.642;2022-11-15T17:41:06;8.50;;;3.90;;
68250;SDS011;55066;51.560;4.642;2022-11-15T17:43:36;10.15;;;4.68;;
68250;SDS011;55066;51.560;4.642;2022-11-15T17:46:06;10.00;;;4.50;;